Time;durP1;ratioP1;P1;durP2;ratioP2;P2;SDS_P1;SDS_P2;PMS_P1;PMS_P2;Temp;Humidity;BMP_temperature;BMP_pressure;BME280_temperature;BME280_humidity;BME280_pressure;Samples;Min_cycle;Max_cycle;Signal;HPM_P1;HPM_P2
2023/03/29 00:02:08;;;;;;;1.80;1.40;;;;;;;2.41;56.37;99661.34;6160668;23;19993;-86
2023/03/29 00:04:34;;;;;;;3.05;1.17;;;;;;;2.46;56.12;99664.19;6136172;23;20008;-86
2023/03/29 00:07:03;;;;;;;2.95;1.40;;;;;;;2.40;57.04;99680.97;6135686;23;20017;-86
2023/03/29 00:09:30;;;;;;;1.08;0.90;;;;;;;2.37;56.85;99676.06;6161293;23;20007;-86
2023/03/29 00:11:56;;;;;;;1.65;1.10;;;;;;;2.47;56.68;99657.88;6136044;23;20469;-86
2023/03/29 00:14:21;;;;;;;1.67;1.00;;;;;;;2.37;56.83;99645.00;6135568;23;20049;-86
2023/03/29 00:16:47;;;;;;;5.00;1.05;;;;;;;2.32;56.36;99646.63;6160138;23;20005;-86
2023/03/29 00:19:13;;;;;;;2.40;1.13;;;;;;;2.39;56.49;99664.22;6160537;23;20059;-86
2023/03/29 00:21:38;;;;;;;5.82;1.20;;;;;;;2.43;55.82;99662.78;6137848;23;20012;-87
2023/03/29 00:24:04;;;;;;;1.42;0.98;;;;;;;2.42;56.17;99662.97;6161973;23;19997;-86
2023/03/29 00:26:29;;;;;;;0.95;0.88;;;;;;;2.38;55.86;99651.13;6162979;23;20004;-86
2023/03/29 00:28:55;;;;;;;1.10;1.00;;;;;;;2.35;56.19;99660.34;6162541;23;20404;-86
2023/03/29 00:31:21;;;;;;;2.20;1.20;;;;;;;2.44;55.21;99663.59;6162210;23;20001;-86
2023/03/29 00:33:46;;;;;;;8.23;1.20;;;;;;;2.38;54.79;99656.44;6162578;23;20001;-86
2023/03/29 00:36:13;;;;;;;0.77;0.77;;;;;;;2.43;55.04;99661.97;6162020;23;20344;-86
2023/03/29 00:38:39;;;;;;;0.98;0.90;;;;;;;2.36;54.84;99656.63;6162730;23;20005;-86
2023/03/29 00:41:05;;;;;;;1.17;0.88;;;;;;;2.40;54.16;99660.50;6161796;23;20055;-86
2023/03/29 00:43:49;;;;;;;1.50;0.90;;;;;;;2.41;53.80;99645.41;6162150;23;20009;-86
2023/03/29 00:46:15;;;;;;;1.70;1.00;;;;;;;2.54;53.90;99658.66;6137197;23;20100;-86
2023/03/29 00:48:40;;;;;;;1.77;1.10;;;;;;;2.52;53.57;99660.69;6162202;23;20005;-86
2023/03/29 00:51:06;;;;;;;5.55;1.25;;;;;;;2.45;53.48;99656.41;6162612;23;19997;-86
2023/03/29 00:53:37;;;;;;;1.00;0.88;;;;;;;2.47;53.51;99647.22;6162101;23;20091;-87
2023/03/29 00:56:12;;;;;;;1.77;1.00;;;;;;;2.42;53.98;99645.19;6161924;23;20008;-86
2023/03/29 00:59:06;;;;;;;1.50;0.90;;;;;;;2.41;53.33;99646.22;6162620;23;20000;-86
2023/03/29 01:01:34;;;;;;;1.20;1.00;;;;;;;2.61;53.30;99645.34;6186909;23;20049;-86
2023/03/29 01:04:03;;;;;;;1.40;0.80;;;;;;;2.53;53.33;99657.03;6187062;23;20446;-87
2023/03/29 01:06:30;;;;;;;1.40;0.88;;;;;;;2.54;53.73;99649.88;6165401;23;20021;-86
2023/03/29 01:08:57;;;;;;;1.48;1.10;;;;;;;2.54;53.79;99642.69;6163965;23;20008;-86
2023/03/29 01:11:46;;;;;;;2.10;1.10;;;;;;;2.68;52.85;99669.22;6163845;23;20429;-86
2023/03/29 01:14:15;;;;;;;1.58;1.02;;;;;;;2.78;52.93;99664.28;6162427;23;20035;-86
2023/03/29 01:16:41;;;;;;;1.17;0.95;;;;;;;2.84;52.77;99652.81;6162532;23;20013;-86
2023/03/29 01:19:07;;;;;;;1.73;1.10;;;;;;;2.82;53.12;99655.72;6163110;23;20080;-86
2023/03/29 01:21:43;;;;;;;1.48;1.02;;;;;;;2.80;52.90;99665.75;6162965;23;20412;-86
2023/03/29 01:24:09;;;;;;;2.15;1.42;;;;;;;2.76;52.80;99669.84;6188539;23;20428;-85
2023/03/29 01:26:54;;;;;;;1.42;1.15;;;;;;;2.69;53.54;99654.94;6187569;23;20140;-86
2023/03/29 01:29:20;;;;;;;2.63;1.00;;;;;;;2.77;53.33;99663.47;6137613;23;20033;-86
2023/03/29 01:31:49;;;;;;;2.00;1.20;;;;;;;2.69;52.88;99657.59;6186456;23;20000;-86
2023/03/29 01:34:29;;;;;;;1.58;1.20;;;;;;;2.60;53.26;99671.09;6138500;23;20061;-86
2023/03/29 01:37:18;;;;;;;1.73;1.17;;;;;;;2.69;53.00;99679.66;6162337;23;20332;-86
2023/03/29 01:39:44;;;;;;;1.88;1.17;;;;;;;2.66;53.28;99669.47;6186780;23;19997;-85
2023/03/29 01:42:22;;;;;;;1.13;1.02;;;;;;;2.52;53.19;99676.66;6161045;23;20336;-86
2023/03/29 01:45:06;;;;;;;3.83;1.38;;;;;;;2.49;53.10;99662.94;6187734;23;20087;-85
2023/03/29 01:47:45;;;;;;;1.73;1.25;;;;;;;2.54;53.04;99661.31;6186296;23;20030;-86
2023/03/29 01:50:19;;;;;;;4.28;1.45;;;;;;;2.72;52.97;99675.75;6161764;23;20001;-85
2023/03/29 01:52:46;;;;;;;1.85;1.17;;;;;;;2.51;53.36;99676.84;6186495;23;20067;-86
2023/03/29 01:55:13;;;;;;;1.23;1.02;;;;;;;2.59;52.97;99672.16;6187219;23;20009;-86
2023/03/29 01:57:40;;;;;;;1.40;1.13;;;;;;;2.54;53.06;99677.25;6137048;23;20448;-86
2023/03/29 02:00:09;;;;;;;1.98;1.33;;;;;;;2.53;53.42;99686.28;6137858;23;20000;-86
2023/03/29 02:02:35;;;;;;;3.17;1.20;;;;;;;2.38;53.81;99683.81;6161450;23;20004;-86
2023/03/29 02:05:01;;;;;;;2.38;1.30;;;;;;;2.37;53.08;99681.41;6136746;23;20016;-86
2023/03/29 02:07:29;;;;;;;2.65;1.23;;;;;;;2.41;52.97;99671.97;6136830;23;20010;-86
2023/03/29 02:09:56;;;;;;;1.77;1.20;;;;;;;2.33;53.16;99674.84;6138565;23;20008;-85
2023/03/29 02:12:21;;;;;;;1.55;1.00;;;;;;;2.37;52.77;99681.41;6162514;23;20005;-86
2023/03/29 02:14:47;;;;;;;2.65;1.20;;;;;;;2.29;53.21;99678.94;6161951;23;20001;-85
2023/03/29 02:17:17;;;;;;;1.92;1.20;;;;;;;2.27;53.84;99694.28;6136465;23;20005;-86
2023/03/29 02:19:44;;;;;;;2.13;1.38;;;;;;;2.02;53.53;99676.31;6186030;23;20062;-86
2023/03/29 02:22:10;;;;;;;2.35;1.45;;;;;;;2.20;54.02;99684.47;6161824;23;20352;-86
2023/03/29 02:24:36;;;;;;;8.27;1.38;;;;;;;1.97;54.12;99679.59;6137368;23;20004;-86
2023/03/29 02:27:01;;;;;;;1.50;1.40;;;;;;;2.08;54.29;99693.28;6162087;23;19996;-86
2023/03/29 02:29:27;;;;;;;4.13;1.42;;;;;;;1.99;54.82;99685.50;6162410;23;20080;-85
2023/03/29 02:31:59;;;;;;;1.77;1.30;;;;;;;2.02;54.21;99698.38;6161330;23;20005;-86
2023/03/29 02:34:29;;;;;;;1.42;1.08;;;;;;;1.96;54.24;99685.91;6136087;23;20005;-86
2023/03/29 02:37:01;;;;;;;2.25;1.63;;;;;;;1.87;55.05;99697.75;6161685;23;20457;-85
2023/03/29 02:39:27;;;;;;;3.28;1.67;;;;;;;2.02;54.13;99702.88;6137763;23;20024;-86
2023/03/29 02:41:53;;;;;;;1.58;1.20;;;;;;;2.02;55.07;99714.31;6161471;23;20375;-85
2023/03/29 02:44:20;;;;;;;2.28;1.30;;;;;;;1.91;54.63;99709.63;6161779;23;20004;-86
2023/03/29 02:46:47;;;;;;;3.17;1.48;;;;;;;1.90;54.55;99707.16;6136662;23;20001;-86
2023/03/29 02:49:13;;;;;;;2.42;1.60;;;;;;;1.77;55.86;99695.50;6136068;23;20068;-86
2023/03/29 02:51:39;;;;;;;3.33;1.77;;;;;;;1.90;54.89;99718.59;6137122;23;20440;-86
2023/03/29 02:54:17;;;;;;;3.42;1.90;;;;;;;1.84;55.17;99700.81;6161654;23;20001;-86
2023/03/29 02:56:47;;;;;;;2.45;1.65;;;;;;;1.99;54.53;99721.84;6162808;23;20001;-86
2023/03/29 02:59:12;;;;;;;2.90;1.77;;;;;;;1.87;54.68;99710.19;6187160;23;20088;-86
2023/03/29 03:01:41;;;;;;;2.70;1.60;;;;;;;1.90;54.74;99720.44;6161045;23;20031;-86
2023/03/29 03:04:07;;;;;;;3.78;1.80;;;;;;;1.92;54.65;99711.22;6161042;23;20001;-86
2023/03/29 03:06:32;;;;;;;3.47;1.67;;;;;;;1.96;54.31;99731.06;6161219;23;20063;-86
2023/03/29 03:08:58;;;;;;;2.25;1.60;;;;;;;1.90;54.55;99723.91;6161874;23;20048;-86
2023/03/29 03:11:23;;;;;;;2.83;1.70;;;;;;;1.94;55.08;99730.44;6160580;23;19994;-86
2023/03/29 03:13:49;;;;;;;7.07;2.05;;;;;;;1.92;55.04;99716.53;6161353;23;20005;-86
2023/03/29 03:16:14;;;;;;;1.88;1.42;;;;;;;2.01;54.90;99741.06;6161246;23;20009;-86
2023/03/29 03:18:40;;;;;;;4.32;1.70;;;;;;;1.89;55.38;99740.03;6159658;23;20001;-85
2023/03/29 03:21:05;;;;;;;2.30;1.90;;;;;;;1.74;56.14;99722.47;6136841;23;20008;-86
2023/03/29 03:23:31;;;;;;;2.33;1.52;;;;;;;1.84;55.35;99748.59;6166921;23;20135;-85
2023/03/29 03:25:57;;;;;;;2.30;1.63;;;;;;;1.86;55.10;99751.06;6162849;23;19993;-86
2023/03/29 03:28:23;;;;;;;2.20;1.65;;;;;;;1.74;55.73;99746.34;6163395;23;20001;-85
2023/03/29 03:30:48;;;;;;;2.72;2.00;;;;;;;1.70;55.94;99742.47;6162406;23;20068;-85
2023/03/29 03:33:14;;;;;;;2.50;2.00;;;;;;;1.71;56.09;99753.91;6165024;23;20490;-85
2023/03/29 03:35:39;;;;;;;1.77;1.42;;;;;;;1.80;55.75;99747.38;6162062;23;20005;-85
2023/03/29 03:38:05;;;;;;;6.28;1.77;;;;;;;1.83;56.25;99749.63;6164921;23;20000;-85
2023/03/29 03:40:31;;;;;;;2.78;1.67;;;;;;;1.94;54.98;99750.88;6111838;23;20491;-86
2023/03/29 03:42:57;;;;;;;3.22;2.00;;;;;;;1.96;55.97;99770.06;6136207;23;20005;-85
2023/03/29 03:45:23;;;;;;;3.08;2.00;;;;;;;2.04;55.81;99772.53;6161229;23;20001;-87
2023/03/29 03:47:49;;;;;;;5.00;1.90;;;;;;;1.95;55.53;99771.06;6161486;23;20063;-86
2023/03/29 03:50:15;;;;;;;4.07;2.22;;;;;;;1.91;55.59;99773.34;6160477;23;20007;-86
2023/03/29 03:52:40;;;;;;;8.50;2.10;;;;;;;2.02;55.67;99782.53;6160972;23;20032;-86
2023/03/29 03:55:07;;;;;;;2.80;1.60;;;;;;;1.93;55.11;99781.09;6135891;23;20502;-86
2023/03/29 03:57:36;;;;;;;6.75;1.95;;;;;;;1.92;54.67;99769.66;6137818;23;20004;-85
2023/03/29 04:00:12;;;;;;;3.30;2.00;;;;;;;2.06;55.48;99783.78;6163259;23;20083;-85
2023/03/29 04:02:38;;;;;;;3.72;2.20;;;;;;;1.99;55.35;99790.91;6164221;23;20436;-84
2023/03/29 04:05:03;;;;;;;2.97;2.00;;;;;;;2.01;55.30;99805.63;6164601;23;20016;-86
2023/03/29 04:07:29;;;;;;;5.75;2.28;;;;;;;2.05;54.62;99803.38;6162281;23;20009;-85
2023/03/29 04:09:57;;;;;;;6.95;2.08;;;;;;;2.06;54.39;99783.78;6138452;23;20001;-85
2023/03/29 04:12:22;;;;;;;5.00;2.45;;;;;;;2.22;54.37;99803.78;6162040;23;20362;-87
2023/03/29 04:14:48;;;;;;;3.35;2.45;;;;;;;2.22;54.30;99795.81;6162764;23;19999;-86
2023/03/29 04:17:13;;;;;;;2.33;1.77;;;;;;;2.32;53.94;99800.75;6137978;23;20005;-86
2023/03/29 04:19:39;;;;;;;3.42;1.90;;;;;;;2.33;53.98;99811.19;6162256;23;20005;-86
2023/03/29 04:22:04;;;;;;;4.45;1.88;;;;;;;2.29;54.18;99814.47;6161919;23;20067;-86
2023/03/29 04:24:30;;;;;;;2.58;2.25;;;;;;;2.25;54.02;99821.19;6161904;23;20005;-86
2023/03/29 04:26:55;;;;;;;11.07;2.70;;;;;;;2.26;54.24;99812.19;6162111;23;20040;-86
2023/03/29 04:29:21;;;;;;;5.03;2.28;;;;;;;2.39;53.15;99820.19;6161878;23;20012;-87
2023/03/29 04:31:47;;;;;;;3.72;2.25;;;;;;;2.17;53.88;99814.22;6137105;23;20451;-87
2023/03/29 04:34:12;;;;;;;3.53;2.50;;;;;;;2.36;53.58;99817.91;6162473;23;20422;-87
2023/03/29 04:36:38;;;;;;;4.65;2.13;;;;;;;2.37;53.69;99801.78;6162433;23;20009;-87
2023/03/29 04:39:03;;;;;;;2.83;2.05;;;;;;;2.44;52.94;99836.31;6139384;23;19997;-85
2023/03/29 04:41:29;;;;;;;4.63;2.00;;;;;;;2.37;52.63;99832.84;6162442;23;20004;-86
2023/03/29 04:43:54;;;;;;;3.75;2.67;;;;;;;2.39;53.71;99826.31;6163564;23;20000;-87
2023/03/29 04:46:21;;;;;;;3.25;2.40;;;;;;;2.51;53.28;99833.66;6163204;23;20001;-87
2023/03/29 04:48:46;;;;;;;3.63;2.60;;;;;;;2.42;52.94;99833.03;6137724;23;20107;-86
2023/03/29 04:51:12;;;;;;;12.40;2.35;;;;;;;2.51;53.03;99844.28;6163691;23;20012;-88
2023/03/29 04:53:38;;;;;;;8.32;2.40;;;;;;;2.61;52.30;99839.38;6163310;23;19997;-88
2023/03/29 04:56:05;;;;;;;3.03;2.42;;;;;;;2.65;52.22;99839.81;6138800;23;20024;-88
2023/03/29 04:58:36;;;;;;;4.63;2.25;;;;;;;2.82;51.94;99862.28;6164030;23;20116;-87
2023/03/29 05:01:02;;;;;;;5.15;2.65;;;;;;;2.66;51.83;99834.28;6164097;23;20067;-85
2023/03/29 05:03:31;;;;;;;5.05;2.25;;;;;;;2.47;52.50;99846.56;6141115;23;20005;-85
2023/03/29 05:06:05;;;;;;;3.25;2.13;;;;;;;2.41;52.53;99844.72;6160406;23;20017;-86
2023/03/29 05:08:37;;;;;;;2.78;2.22;;;;;;;2.55;52.16;99859.66;6167249;23;20133;-93
2023/03/29 05:11:03;;;;;;;4.13;2.50;;;;;;;2.41;53.03;99828.78;6139733;23;20084;-92
2023/03/29 05:13:29;;;;;;;2.45;1.95;;;;;;;2.45;52.88;99853.91;6167462;23;20051;-94
2023/03/29 05:15:55;;;;;;;3.40;2.53;;;;;;;2.68;51.83;99866.81;6168777;23;20032;-95
2023/03/29 05:18:21;;;;;;;5.57;2.90;;;;;;;2.49;52.54;99859.63;6143074;23;20028;-95
2023/03/29 05:20:46;;;;;;;2.72;2.15;;;;;;;2.61;52.60;99856.19;6145268;23;20001;-94
2023/03/29 05:23:12;;;;;;;4.15;2.58;;;;;;;2.56;52.24;99847.97;6169786;23;20036;-95
2023/03/29 05:25:38;;;;;;;3.55;2.63;;;;;;;2.76;51.97;99871.91;6167134;23;20008;-96
2023/03/29 05:28:09;;;;;;;5.20;2.90;;;;;;;2.61;52.98;99864.16;6167663;23;20005;-95
2023/03/29 05:31:16;;;;;;;8.40;2.57;;;;;;;2.82;51.82;99884.41;6167906;23;20068;-93
2023/03/29 05:33:42;;;;;;;5.68;3.83;;;;;;;2.91;50.91;99868.22;6192534;23;20230;-93
2023/03/29 05:36:09;;;;;;;3.42;2.35;;;;;;;3.08;49.82;99879.25;6171103;23;20083;-86
2023/03/29 05:38:35;;;;;;;4.00;2.58;;;;;;;3.11;49.75;99879.66;6167342;23;20001;-86
2023/03/29 05:41:02;;;;;;;4.72;2.38;;;;;;;3.10;49.43;99858.59;6139548;23;20079;-88
2023/03/29 05:43:27;;;;;;;5.63;2.13;;;;;;;3.29;49.60;99870.22;6161838;23;20392;-87
2023/03/29 05:45:53;;;;;;;7.60;3.83;;;;;;;3.47;49.22;99889.00;6162084;23;19997;-88
2023/03/29 05:48:22;;;;;;;10.43;6.20;;;;;;;3.50;47.84;99885.91;6138669;23;19997;-89
2023/03/29 05:50:51;;;;;;;6.28;3.40;;;;;;;3.49;48.75;99888.81;6138023;23;20088;-87
2023/03/29 05:53:17;;;;;;;4.15;2.22;;;;;;;3.44;48.04;99884.09;6140472;23;20004;-90
2023/03/29 05:55:51;;;;;;;3.28;2.10;;;;;;;3.44;47.71;99868.13;6138514;23;20009;-87
2023/03/29 06:02:21;;;;;;;4.07;2.67;;;;;;;3.50;46.47;99866.47;6080792;23;20014;-89
2023/03/29 06:04:47;;;;;;;3.40;2.17;;;;;;;3.49;46.94;99883.47;6067639;23;20011;-88
2023/03/29 06:07:19;;;;;;;4.50;2.60;;;;;;;3.47;47.79;99869.56;6046245;23;20053;-88
2023/03/29 06:09:44;;;;;;;5.63;2.50;;;;;;;3.55;47.36;99878.13;6046219;23;20007;-87
2023/03/29 06:12:18;;;;;;;3.08;2.08;;;;;;;3.53;46.15;99880.19;6046799;23;20363;-87
2023/03/29 06:14:47;;;;;;;3.83;2.35;;;;;;;3.48;46.55;99874.66;6068134;23;20006;-88
2023/03/29 06:17:12;;;;;;;5.65;2.53;;;;;;;3.60;46.54;99885.47;6042382;23;20011;-88
2023/03/29 06:19:38;;;;;;;3.97;2.60;;;;;;;3.66;46.70;99891.81;6045543;23;20033;-88
2023/03/29 06:22:03;;;;;;;6.93;2.97;;;;;;;3.57;45.81;99877.91;6049387;23;20010;-93
2023/03/29 06:24:34;;;;;;;4.63;2.92;;;;;;;3.70;45.92;99906.34;6048179;23;20010;-94
2023/03/29 06:27:00;;;;;;;3.75;2.63;;;;;;;3.57;46.02;99894.72;6049293;23;20003;-92
2023/03/29 06:29:28;;;;;;;5.50;2.25;;;;;;;3.68;46.10;99877.25;6098288;23;20017;-93
2023/03/29 06:31:57;;;;;;;6.22;2.47;;;;;;;4.04;46.04;99905.97;6091300;23;20037;-93
2023/03/29 06:34:23;;;;;;;3.63;2.00;;;;;;;3.96;45.04;99898.22;6136547;23;20060;-93
2023/03/29 06:36:49;;;;;;;6.10;2.42;;;;;;;4.03;44.99;99892.91;6112888;23;20453;-93
2023/03/29 06:39:15;;;;;;;3.22;2.08;;;;;;;4.15;44.07;99887.69;6092799;23;20052;-96
2023/03/29 06:41:43;;;;;;;4.10;2.20;;;;;;;4.39;44.10;99910.13;6092497;23;20005;-96
2023/03/29 06:44:12;;;;;;;7.78;2.13;;;;;;;4.47;43.39;99899.19;6114834;23;20088;-94
2023/03/29 06:46:43;;;;;;;3.38;2.30;;;;;;;4.41;43.67;99894.72;6125799;23;20003;-95
2023/03/29 06:49:35;;;;;;;3.45;1.88;;;;;;;4.51;42.72;99918.25;6155769;23;20036;-94
2023/03/29 06:52:21;;;;;;;4.85;2.05;;;;;;;4.40;43.97;99909.91;6185014;23;20077;-94
2023/03/29 06:54:50;;;;;;;3.83;2.35;;;;;;;4.37;43.40;99905.00;6201716;23;20085;-96
2023/03/29 06:57:19;;;;;;;5.47;2.38;;;;;;;4.33;43.63;99906.44;6173595;23;20032;-95
2023/03/29 06:59:47;;;;;;;3.53;1.85;;;;;;;4.32;43.35;99912.81;6172459;23;20001;-95
2023/03/29 07:02:14;;;;;;;5.00;2.30;;;;;;;4.42;42.72;99918.50;6144855;23;20004;-93
2023/03/29 07:04:41;;;;;;;2.95;2.08;;;;;;;4.51;42.16;99945.72;6146896;23;20005;-93
2023/03/29 07:10:08;;;;;;;2.85;2.00;;;;;;;4.50;41.73;99917.41;6164746;23;20016;-93
2023/03/29 07:12:33;;;;;;;3.65;2.30;;;;;;;4.64;41.55;99907.47;6137504;23;19990;-95
2023/03/29 07:15:25;;;;;;;5.65;2.80;;;;;;;4.83;42.30;99946.53;6166015;23;20013;-96
2023/03/29 07:18:17;;;;;;;3.50;2.58;;;;;;;4.58;41.80;99895.00;6145674;23;20008;-95
2023/03/29 07:23:33;;;;;;;;;;;;;;;;;;;;;
2023/03/29 07:26:19;;;;;;;;;;;;;;;;;;;;;
2023/03/29 07:28:45;;;;;;;4.78;2.97;;;;;;;4.89;41.71;99904.81;6119703;23;20016;-93
2023/03/29 07:31:14;;;;;;;3.15;1.85;;;;;;;5.12;40.75;99930.91;6118981;23;20053;-91
2023/03/29 07:34:09;;;;;;;2.90;1.98;;;;;;;4.92;40.44;99925.75;6119527;23;20005;-90
2023/03/29 07:36:38;;;;;;;4.95;2.30;;;;;;;5.05;40.03;99912.28;6119261;23;20012;-90
2023/03/29 07:39:11;;;;;;;4.60;2.28;;;;;;;5.24;40.42;99921.16;6137384;23;20020;-93
2023/03/29 07:41:56;;;;;;;10.20;1.98;;;;;;;5.39;40.07;99918.13;6119323;23;20018;-94
2023/03/29 07:44:25;;;;;;;4.35;2.00;;;;;;;5.50;39.61;99919.28;6117170;23;20005;-95
2023/03/29 07:53:08;;;;;;;3.05;1.80;;;;;;;5.79;39.41;99931.06;6079489;23;20021;-91
2023/03/29 07:55:49;;;;;;;3.67;1.90;;;;;;;5.88;38.79;99928.91;6107085;23;20006;-94
2023/03/29 07:58:42;;;;;;;4.47;2.60;;;;;;;5.56;38.81;99930.91;6144048;23;20053;-93
2023/03/29 08:01:07;;;;;;;4.78;2.90;;;;;;;5.58;38.25;99907.47;6119087;23;20001;-94
2023/03/29 08:03:33;;;;;;;2.85;2.00;;;;;;;5.98;38.32;99931.91;6120630;23;20025;-94
2023/03/29 08:06:29;;;;;;;3.22;1.80;;;;;;;6.03;36.78;99915.19;6120856;23;19994;-96
2023/03/29 08:09:01;;;;;;;3.65;2.05;;;;;;;6.14;36.87;99917.09;6151965;23;20001;-96
2023/03/29 08:11:33;;;;;;;2.83;1.90;;;;;;;6.00;36.94;99921.81;6148732;23;20000;-95
2023/03/29 08:13:58;;;;;;;2.58;1.85;;;;;;;6.09;36.89;99932.19;6117083;23;20053;-92
2023/03/29 08:16:27;;;;;;;4.43;1.83;;;;;;;6.35;36.29;99937.19;6119232;23;20074;-94
2023/03/29 08:18:55;;;;;;;3.58;1.95;;;;;;;6.04;36.85;99911.50;6120775;23;20020;-95
2023/03/29 08:21:21;;;;;;;2.63;1.90;;;;;;;6.04;36.00;99911.50;6116926;23;20040;-90
2023/03/29 08:23:56;;;;;;;3.17;2.05;;;;;;;6.18;36.14;99922.81;6115567;23;20067;-90
2023/03/29 08:26:21;;;;;;;3.15;2.30;;;;;;;5.97;35.68;99911.56;6114010;23;20040;-94
2023/03/29 08:28:47;;;;;;;5.82;2.72;;;;;;;6.17;35.99;99927.34;6111602;23;20001;-93
2023/03/29 08:31:18;;;;;;;6.18;2.50;;;;;;;6.28;35.15;99923.91;6142075;23;20001;-94
2023/03/29 08:36:40;;;;;;;7.70;1.92;;;;;;;6.20;36.16;99907.34;6116520;23;20021;-95
2023/03/29 08:39:08;;;;;;;2.28;1.60;;;;;;;6.32;35.63;99912.75;6149608;23;19989;-95
2023/03/29 08:42:18;;;;;;;8.00;4.20;;;;;;;6.20;34.56;99934.09;6129748;23;20002;-95
2023/03/29 08:45:05;;;;;;;4.47;3.38;;;;;;;6.19;35.00;99919.91;6106456;23;20349;-95
2023/03/29 08:47:45;;;;;;;3.53;2.25;;;;;;;6.35;35.37;99905.09;6169002;23;20001;-94
2023/03/29 08:50:12;;;;;;;2.38;1.88;;;;;;;6.22;35.37;99887.38;6166949;23;20008;-87
2023/03/29 08:52:45;;;;;;;4.28;2.30;;;;;;;6.46;34.39;99895.47;6096628;23;19997;-94
2023/03/29 08:55:37;;;;;;;2.50;1.83;;;;;;;6.50;33.54;99874.44;6097502;23;20005;-95
2023/03/29 08:58:04;;;;;;;;;;;;;;;6.98;33.86;99900.22;6118151;23;20349;-91
2023/03/29 09:00:35;;;;;;;2.10;1.65;;;;;;;7.07;34.19;99891.59;6138110;23;19912;-92
2023/03/29 09:03:46;;;;;;;2.42;1.73;;;;;;;6.78;32.22;99873.78;6169419;23;19989;-96
2023/03/29 09:06:15;;;;;;;3.42;2.03;;;;;;;6.81;33.27;99884.84;6081094;23;20318;-96
2023/03/29 09:08:51;;;;;;;4.10;1.95;;;;;;;6.98;33.57;99903.72;6086747;23;20010;-95
2023/03/29 09:11:55;;;;;;;2.70;1.80;;;;;;;6.67;33.52;99844.09;6129771;23;20056;-96
2023/03/29 09:14:32;;;;;;;5.80;2.47;;;;;;;7.03;33.36;99897.66;6168629;23;19998;-96
2023/03/29 09:17:27;;;;;;;;;;;;;;;;;;;;;
2023/03/29 09:20:05;;;;;;;2.45;1.48;;;;;;;6.63;32.74;99882.25;6146596;23;20040;-86
2023/03/29 09:22:50;;;;;;;2.15;1.50;;;;;;;6.62;33.96;99902.84;6144235;23;20025;-88
2023/03/29 09:25:36;;;;;;;3.05;1.90;;;;;;;6.57;34.06;99913.41;6145745;23;20001;-88
2023/03/29 09:28:05;;;;;;;3.63;2.00;;;;;;;6.78;32.92;99921.97;6167782;23;19997;-88
2023/03/29 09:30:34;;;;;;;2.40;1.65;;;;;;;6.63;33.63;99912.50;6118657;23;20005;-88
2023/03/29 09:33:04;;;;;;;3.25;1.90;;;;;;;6.78;33.20;99920.09;6117066;23;19997;-86
2023/03/29 09:35:37;;;;;;;2.78;1.60;;;;;;;6.61;33.60;99895.84;6090306;23;20547;-87
2023/03/29 09:38:04;;;;;;;4.15;1.83;;;;;;;6.43;33.89;99887.91;6114463;23;20001;-87
2023/03/29 09:41:09;;;;;;;3.03;2.05;;;;;;;6.28;34.14;99877.63;6118749;23;20001;-89
2023/03/29 09:43:37;;;;;;;2.90;1.73;;;;;;;6.41;33.90;99885.47;6135213;23;20011;-88
2023/03/29 09:46:36;;;;;;;2.53;1.83;;;;;;;6.59;34.05;99903.28;6120784;23;20005;-88
2023/03/29 09:49:03;;;;;;;3.45;2.13;;;;;;;6.77;33.83;99896.25;6145319;23;20007;-88
2023/03/29 09:51:29;;;;;;;1.98;1.52;;;;;;;6.63;33.64;99875.03;6115068;23;20002;-88
2023/03/29 09:54:11;;;;;;;5.03;2.45;;;;;;;6.71;32.88;99889.16;6116417;23;19997;-90
2023/03/29 09:56:42;;;;;;;4.28;2.33;;;;;;;6.82;33.33;99899.03;6170791;23;20002;-89
2023/03/29 09:59:13;;;;;;;4.70;1.75;;;;;;;6.76;32.53;99911.47;6120251;23;20009;-92
2023/03/29 10:01:44;;;;;;;2.15;1.45;;;;;;;6.99;32.62;99913.41;6121624;23;20025;-90
2023/03/29 10:04:49;;;;;;;;;;;;;;;;;;;;;
2023/03/29 10:07:17;;;;;;;3.75;1.90;;;;;;;7.18;33.35;99911.41;6169579;23;19997;-92
2023/03/29 10:09:43;;;;;;;2.53;1.83;;;;;;;7.32;32.57;99909.31;6116198;23;20576;-90
2023/03/29 10:12:15;;;;;;;3.58;2.00;;;;;;;7.44;31.75;99928.06;6118879;23;20005;-90
2023/03/29 10:15:13;;;;;;;3.70;1.80;;;;;;;7.04;31.37;99881.38;6123876;23;20001;-89
2023/03/29 10:17:44;;;;;;;3.13;2.13;;;;;;;7.03;31.48;99885.06;6029606;23;20008;-90
2023/03/29 10:22:55;;;;;;;2.70;1.70;;;;;;;7.40;31.69;99884.03;6157541;23;20060;-90
2023/03/29 10:25:25;;;;;;;4.18;1.92;;;;;;;7.58;30.36;99875.84;6086641;23;20012;-87
2023/03/29 10:27:51;;;;;;;2.17;1.65;;;;;;;7.84;30.70;99895.13;6108101;23;20017;-89
2023/03/29 10:30:22;;;;;;;4.38;2.17;;;;;;;7.86;30.68;99888.50;6110332;23;20009;-89
2023/03/29 10:33:06;;;;;;;2.10;1.60;;;;;;;7.74;29.57;99898.44;6110657;23;20001;-89
2023/03/29 10:35:40;;;;;;;3.72;2.20;;;;;;;7.54;30.65;99882.72;6114072;23;20525;-89
2023/03/29 10:38:27;;;;;;;4.38;2.50;;;;;;;7.58;30.45;99872.38;6113584;23;20001;-87
2023/03/29 10:40:53;;;;;;;8.77;2.28;;;;;;;7.79;30.88;99903.09;6111658;23;20016;-89
2023/03/29 10:43:23;;;;;;;3.20;2.10;;;;;;;7.90;29.92;99912.94;6110856;23;20001;-87
2023/03/29 10:46:12;;;;;;;3.17;2.05;;;;;;;8.00;30.58;99905.09;6140927;23;19997;-88
2023/03/29 10:49:14;;;;;;;;;;;;;;;;;;;;;
2023/03/29 10:51:43;;;;;;;4.95;3.08;;;;;;;7.79;31.17;99877.09;6082004;23;20030;-86
2023/03/29 10:54:12;;;;;;;2.67;1.70;;;;;;;8.07;30.26;99902.28;6075923;23;20061;-88
2023/03/29 10:56:42;;;;;;;3.70;1.98;;;;;;;8.15;30.09;99899.22;6053481;23;20011;-89
2023/03/29 10:59:08;;;;;;;3.75;2.53;;;;;;;8.19;30.39;99902.25;6081244;23;20006;-88
2023/03/29 11:02:21;;;;;;;4.88;3.10;;;;;;;7.95;31.34;99870.16;6078127;23;19994;-88
2023/03/29 11:05:30;;;;;;;2.67;1.85;;;;;;;7.92;32.07;99892.06;6073911;23;20002;-88
2023/03/29 11:08:05;;;;;;;5.00;2.45;;;;;;;7.60;30.87;99871.06;6104478;23;19998;-88
2023/03/29 11:10:50;;;;;;;2.28;1.85;;;;;;;7.55;31.44;99905.78;6078866;23;20097;-88
2023/03/29 11:13:53;;;;;;;2.75;1.80;;;;;;;7.13;32.78;99878.34;6099330;23;20092;-87
2023/03/29 11:16:51;;;;;;;3.22;2.10;;;;;;;7.28;32.64;99890.22;6017137;23;20052;-88
2023/03/29 11:19:44;;;;;;;7.05;2.17;;;;;;;7.46;32.01;99889.25;6008777;23;20414;-88
2023/03/29 11:22:31;;;;;;;4.45;2.03;;;;;;;7.29;30.91;99881.13;6068264;23;20038;-89
2023/03/29 11:25:22;;;;;;;4.35;1.75;;;;;;;7.53;31.80;99905.22;6072431;23;20014;-91
2023/03/29 11:28:41;;;;;;;9.25;2.20;;;;;;;7.39;32.10;99867.16;6101780;23;20025;-94
2023/03/29 11:31:57;;;;;;;3.28;1.98;;;;;;;7.37;32.25;99890.69;6063685;23;20009;-95
2023/03/29 11:34:44;;;;;;;2.67;1.67;;;;;;;7.26;31.19;99878.09;6145072;23;20029;-94
2023/03/29 11:41:20;;;;;;;2.25;1.70;;;;;;;7.39;31.95;99885.09;6110154;23;20006;-96
2023/03/29 11:43:57;;;;;;;2.15;1.80;;;;;;;7.43;31.73;99849.56;6083918;23;20374;-96
2023/03/29 11:53:43;;;;;;;2.97;1.60;;;;;;;7.35;30.70;99876.72;6139169;23;20023;-96
2023/03/29 11:56:28;;;;;;;2.67;1.77;;;;;;;7.20;30.37;99844.22;6020484;23;20027;-95
2023/03/29 11:59:07;;;;;;;2.95;1.77;;;;;;;7.18;30.28;99831.09;6106930;23;20010;-94
2023/03/29 12:01:56;;;;;;;3.53;2.00;;;;;;;7.31;31.08;99870.19;6080949;23;20010;-92
2023/03/29 12:04:52;;;;;;;2.88;1.77;;;;;;;7.27;31.46;99840.38;6081923;23;20006;-95
2023/03/29 12:08:00;;;;;;;1.98;1.65;;;;;;;7.36;30.67;99838.13;6098567;23;20006;-95
2023/03/29 12:11:04;;;;;;;5.07;2.63;;;;;;;7.47;30.46;99872.16;6089185;23;20013;-95
2023/03/29 12:14:01;;;;;;;2.83;1.70;;;;;;;7.07;31.29;99837.25;6112516;23;20009;-95
2023/03/29 12:16:34;;;;;;;3.08;1.80;;;;;;;7.17;31.01;99816.03;6111585;23;20007;-94
2023/03/29 12:19:45;;;;;;;2.83;1.70;;;;;;;7.20;31.54;99820.13;6087495;23;20087;-95
2023/03/29 12:22:17;;;;;;;11.23;4.22;;;;;;;7.41;31.07;99832.91;6111713;23;20007;-96
2023/03/29 12:25:03;;;;;;;4.95;3.08;;;;;;;7.22;31.34;99818.00;6113873;23;20017;-95
2023/03/29 12:27:51;;;;;;;7.30;4.00;;;;;;;7.54;30.87;99877.38;6069959;23;19999;-96
2023/03/29 12:37:34;;;;;;;3.13;2.20;;;;;;;7.44;30.86;99845.00;6059905;23;20483;-96
2023/03/29 12:43:46;;;;;;;3.05;1.90;;;;;;;7.63;30.40;99826.91;6142928;23;20018;-95
2023/03/29 12:49:55;;;;;;;4.40;2.55;;;;;;;7.71;30.12;99815.81;6123736;23;20021;-96
2023/03/29 12:53:13;;;;;;;;;;;;;;;;;;;;;
2023/03/29 12:55:41;;;;;;;2.92;1.63;;;;;;;7.87;29.55;99857.94;6036918;23;20015;-96
2023/03/29 12:58:43;;;;;;;6.03;2.45;;;;;;;7.82;30.05;99862.38;6142040;23;19994;-96
2023/03/29 13:01:39;;;;;;;3.60;2.53;;;;;;;7.94;29.88;99862.34;6138814;23;19998;-95
2023/03/29 13:04:19;;;;;;;3.90;1.88;;;;;;;7.79;29.98;99863.69;6145285;23;20022;-96
2023/03/29 13:07:12;;;;;;;3.17;1.60;;;;;;;7.78;30.03;99845.16;6144220;23;19998;-96